createdAt,value
2023-01-06T00:01:42.977Z,3.49
2023-01-06T00:04:11.035Z,3.47
2023-01-06T00:06:39.102Z,3.42
2023-01-06T00:09:06.922Z,3.42
2023-01-06T00:11:37.407Z,3.41
2023-01-06T00:14:05.483Z,3.42
2023-01-06T00:16:33.471Z,3.42
2023-01-06T00:19:01.575Z,3.44
2023-01-06T00:21:29.824Z,3.46
2023-01-06T00:23:57.806Z,3.48
2023-01-06T00:26:26.794Z,3.49
2023-01-06T00:28:56.760Z,3.46
2023-01-06T00:31:28.451Z,3.46
2023-01-06T00:33:58.179Z,3.47
2023-01-06T00:36:26.265Z,3.47
2023-01-06T00:38:54.423Z,3.50
2023-01-06T00:41:42.521Z,3.44
2023-01-06T00:44:10.489Z,3.38
2023-01-06T00:46:38.474Z,3.44
2023-01-06T00:49:07.607Z,3.36
2023-01-06T00:51:39.869Z,3.29
2023-01-06T00:54:11.618Z,3.29
2023-01-06T00:56:46.493Z,3.15
2023-01-06T00:59:18.103Z,3.16
2023-01-06T01:01:48.741Z,3.10
2023-01-06T01:04:18.340Z,3.03
2023-01-06T01:06:47.701Z,3.03
2023-01-06T01:09:19.431Z,2.98
2023-01-06T01:12:06.700Z,3.01
2023-01-06T01:14:55.814Z,3.00
2023-01-06T01:17:28.992Z,2.99
2023-01-06T01:20:00.178Z,3.02
2023-01-06T01:22:31.593Z,3.07
2023-01-06T01:25:02.477Z,3.11
2023-01-06T01:27:30.530Z,3.17
2023-01-06T01:29:58.601Z,3.20
2023-01-06T01:32:26.709Z,3.21
2023-01-06T01:34:54.632Z,3.21
2023-01-06T01:37:22.693Z,3.20
2023-01-06T01:39:50.660Z,3.19
2023-01-06T01:42:21.208Z,3.18
2023-01-06T01:44:49.235Z,3.17
2023-01-06T01:47:33.217Z,3.15
2023-01-06T01:50:15.003Z,3.13
2023-01-06T01:52:46.005Z,3.14
2023-01-06T01:55:17.173Z,3.15
2023-01-06T01:57:52.926Z,3.15
2023-01-06T02:00:21.183Z,3.21
2023-01-06T02:02:50.357Z,3.24
2023-01-06T02:05:24.068Z,3.25
2023-01-06T02:07:53.324Z,3.26
2023-01-06T02:10:24.274Z,3.23
2023-01-06T02:12:57.745Z,3.22
2023-01-06T02:15:33.046Z,3.20
2023-01-06T02:18:45.957Z,3.15
2023-01-06T02:21:52.027Z,3.10
2023-01-06T02:24:32.224Z,3.13
2023-01-06T02:27:29.115Z,3.13
2023-01-06T02:30:15.486Z,3.10
2023-01-06T02:33:00.458Z,3.09
2023-01-06T02:35:51.092Z,3.02
2023-01-06T02:38:46.582Z,2.90
2023-01-06T02:41:33.290Z,2.86
2023-01-06T02:44:11.324Z,2.79
2023-01-06T02:47:00.055Z,2.74
2023-01-06T02:49:48.302Z,2.71
2023-01-06T02:52:46.645Z,2.69
2023-01-06T02:55:27.720Z,2.64
2023-01-06T02:58:10.507Z,2.59
2023-01-06T03:00:48.515Z,2.52
2023-01-06T03:03:23.906Z,2.43
2023-01-06T03:05:59.890Z,2.37
2023-01-06T03:08:31.611Z,2.33
2023-01-06T03:11:02.557Z,2.31
2023-01-06T03:13:37.772Z,2.26
2023-01-06T03:16:07.900Z,2.16
2023-01-06T03:18:38.996Z,2.05
2023-01-06T03:21:14.929Z,1.98
2023-01-06T03:23:47.390Z,1.93
2023-01-06T03:26:15.622Z,1.90
2023-01-06T03:28:46.129Z,1.89
2023-01-06T03:31:49.147Z,1.93
2023-01-06T03:34:56.256Z,1.96
2023-01-06T03:37:52.352Z,1.99
2023-01-06T03:40:27.951Z,2.02
2023-01-06T03:43:16.948Z,2.03
2023-01-06T03:46:05.656Z,2.04
2023-01-06T03:48:56.092Z,2.02
2023-01-06T03:51:36.248Z,2.00
2023-01-06T03:54:38.125Z,1.93
2023-01-06T03:57:37.952Z,1.88
2023-01-06T04:00:33.271Z,1.85
2023-01-06T04:03:15.320Z,1.87
2023-01-06T04:05:44.959Z,1.94
2023-01-06T04:08:13.169Z,1.98
2023-01-06T04:10:42.470Z,1.99
2023-01-06T04:13:10.390Z,2.04
2023-01-06T04:15:41.409Z,2.08
2023-01-06T04:18:10.432Z,2.04
2023-01-06T04:20:40.872Z,2.02
2023-01-06T04:23:18.665Z,2.03
2023-01-06T04:25:47.552Z,2.07
2023-01-06T04:28:18.513Z,2.13
2023-01-06T04:30:46.622Z,2.19
2023-01-06T04:33:15.683Z,2.26
2023-01-06T04:35:44.934Z,2.30
2023-01-06T04:38:17.876Z,2.31
2023-01-06T04:40:45.972Z,2.32
2023-01-06T04:43:16.867Z,2.36
2023-01-06T04:45:45.728Z,2.39
2023-01-06T04:48:15.187Z,2.42
2023-01-06T04:50:43.333Z,2.40
2023-01-06T04:53:13.384Z,2.39
2023-01-06T04:55:42.325Z,2.36
2023-01-06T04:58:10.238Z,2.36
2023-01-06T05:00:38.328Z,2.37
2023-01-06T05:03:06.329Z,2.40
2023-01-06T05:05:34.435Z,2.40
2023-01-06T05:08:02.426Z,2.42
2023-01-06T05:10:30.389Z,2.46
2023-01-06T05:12:58.356Z,2.47
2023-01-06T05:15:26.429Z,2.45
2023-01-06T05:17:54.455Z,2.46
2023-01-06T05:20:22.398Z,2.44
2023-01-06T05:22:50.392Z,2.44
2023-01-06T05:25:18.293Z,2.50
2023-01-06T05:27:46.268Z,2.53
2023-01-06T05:30:14.397Z,2.62
2023-01-06T05:32:42.507Z,2.64
2023-01-06T05:35:10.517Z,2.63
2023-01-06T05:37:38.368Z,2.63
2023-01-06T05:40:07.473Z,2.66
2023-01-06T05:42:35.347Z,2.64
2023-01-06T05:45:03.628Z,2.61
2023-01-06T05:47:31.529Z,2.58
2023-01-06T05:49:59.500Z,2.59
2023-01-06T05:52:27.397Z,2.64
2023-01-06T05:54:55.253Z,2.69
2023-01-06T05:57:23.371Z,2.71
2023-01-06T05:59:51.278Z,2.77
2023-01-06T06:02:19.270Z,2.83
2023-01-06T06:04:48.033Z,2.90
2023-01-06T06:07:16.070Z,2.91
2023-01-06T06:09:44.213Z,2.90
2023-01-06T06:12:13.446Z,2.93
2023-01-06T06:14:41.365Z,2.98
2023-01-06T06:17:09.485Z,3.00
2023-01-06T06:19:37.608Z,2.99
2023-01-06T06:22:05.784Z,2.99
2023-01-06T06:24:33.697Z,3.01
2023-01-06T06:27:01.749Z,3.01
2023-01-06T06:29:30.610Z,2.98
2023-01-06T06:31:59.317Z,2.99
2023-01-06T06:34:27.279Z,3.05
2023-01-06T06:36:55.359Z,3.12
2023-01-06T06:39:23.313Z,3.15
2023-01-06T06:41:51.243Z,3.12
2023-01-06T06:44:19.311Z,3.07
2023-01-06T06:46:47.322Z,3.08
2023-01-06T06:49:15.433Z,3.03
2023-01-06T06:51:43.610Z,3.02
2023-01-06T06:54:11.531Z,3.04
2023-01-06T06:56:39.546Z,3.05
2023-01-06T06:59:07.741Z,3.09
2023-01-06T07:01:35.826Z,3.08
2023-01-06T07:04:04.797Z,3.07
2023-01-06T07:06:32.824Z,3.11
2023-01-06T07:09:00.986Z,3.15
2023-01-06T07:11:29.094Z,3.13
2023-01-06T07:13:57.278Z,3.13
2023-01-06T07:16:27.408Z,3.14
2023-01-06T07:18:55.484Z,3.15
2023-01-06T07:21:23.394Z,3.15
2023-01-06T07:23:51.520Z,3.14
2023-01-06T07:26:19.656Z,3.17
2023-01-06T07:28:47.666Z,3.18
2023-01-06T07:31:15.841Z,3.22
2023-01-06T07:33:44.281Z,3.28
2023-01-06T07:36:12.353Z,3.32
2023-01-06T07:38:40.435Z,3.32
2023-01-06T07:41:08.503Z,3.31
2023-01-06T07:43:36.638Z,3.32
2023-01-06T07:46:04.942Z,3.32
2023-01-06T07:48:33.059Z,3.33
2023-01-06T07:51:01.143Z,3.33
2023-01-06T07:53:29.416Z,3.36
2023-01-06T07:55:57.382Z,3.40
2023-01-06T07:58:25.423Z,3.43
2023-01-06T08:00:53.598Z,3.45
2023-01-06T08:03:21.748Z,3.49
2023-01-06T08:05:49.961Z,3.54
2023-01-06T08:08:19.133Z,3.63
2023-01-06T08:10:47.196Z,3.64
2023-01-06T08:13:15.817Z,3.67
2023-01-06T08:15:43.868Z,3.69
2023-01-06T08:18:11.929Z,3.66
2023-01-06T08:20:40.371Z,3.71
2023-01-06T08:23:08.366Z,3.63
2023-01-06T08:25:36.543Z,3.67
2023-01-06T08:28:04.792Z,3.73
2023-01-06T08:30:40.339Z,3.80
2023-01-06T08:33:08.570Z,3.84
2023-01-06T08:35:36.620Z,3.86
2023-01-06T08:38:04.671Z,3.85
2023-01-06T08:40:32.694Z,3.86
2023-01-06T08:43:00.627Z,3.86
2023-01-06T08:45:28.711Z,3.89
2023-01-06T08:47:56.969Z,3.95
2023-01-06T08:50:26.636Z,4.01
2023-01-06T08:52:56.110Z,4.09
2023-01-06T08:55:24.209Z,4.15
2023-01-06T08:57:54.689Z,4.20
2023-01-06T09:00:23.940Z,4.25
2023-01-06T09:02:52.172Z,4.30
2023-01-06T09:05:20.485Z,4.34
2023-01-06T09:07:51.714Z,4.36
2023-01-06T09:10:19.829Z,4.35
2023-01-06T09:12:49.932Z,4.37
2023-01-06T09:15:19.941Z,4.42
2023-01-06T09:17:47.854Z,4.44
2023-01-06T09:20:16.299Z,4.46
2023-01-06T09:22:47.059Z,4.50
2023-01-06T09:25:15.074Z,4.51
2023-01-06T09:27:43.468Z,4.47
2023-01-06T09:30:13.626Z,4.48
2023-01-06T09:32:41.644Z,4.47
2023-01-06T09:35:12.076Z,4.46
2023-01-06T09:37:40.035Z,4.49
2023-01-06T09:40:19.176Z,4.66
2023-01-06T09:43:13.113Z,4.76
2023-01-06T09:45:55.658Z,4.79
2023-01-06T09:48:33.600Z,4.80
2023-01-06T09:51:06.950Z,4.79
2023-01-06T09:53:41.741Z,4.79
2023-01-06T09:56:21.959Z,4.79
2023-01-06T09:59:12.995Z,4.79
2023-01-06T10:01:49.028Z,4.79
2023-01-06T10:04:24.590Z,4.81
2023-01-06T10:07:10.909Z,4.82
2023-01-06T10:10:16.419Z,4.79
2023-01-06T10:13:01.450Z,4.79
2023-01-06T10:15:54.085Z,4.81
2023-01-06T10:18:22.068Z,4.87
2023-01-06T10:21:07.884Z,4.95
2023-01-06T10:24:08.265Z,4.99
2023-01-06T10:26:59.336Z,5.05
2023-01-06T10:29:36.280Z,5.04
2023-01-06T10:32:20.593Z,5.04
2023-01-06T10:34:52.101Z,5.02
2023-01-06T10:37:37.133Z,5.00
2023-01-06T10:40:32.263Z,5.04
2023-01-06T10:43:13.915Z,5.14
2023-01-06T10:45:46.626Z,5.21
2023-01-06T10:48:27.386Z,5.21
2023-01-06T10:50:58.362Z,5.22
2023-01-06T10:53:26.289Z,5.21
2023-01-06T10:56:04.330Z,5.18
2023-01-06T10:59:01.822Z,5.17
2023-01-06T11:01:33.922Z,5.13
2023-01-06T11:04:11.984Z,5.14
2023-01-06T11:07:01.738Z,5.13
2023-01-06T11:09:41.811Z,5.10
2023-01-06T11:12:31.834Z,5.10
2023-01-06T11:15:07.717Z,5.09
2023-01-06T11:17:37.668Z,5.09
2023-01-06T11:20:33.969Z,5.08
2023-01-06T11:23:24.233Z,5.04
2023-01-06T11:26:04.239Z,4.98
2023-01-06T11:28:34.404Z,4.93
2023-01-06T11:31:09.293Z,4.94
2023-01-06T11:33:49.431Z,4.90
2023-01-06T11:36:21.654Z,4.84
2023-01-06T11:39:00.165Z,4.98
2023-01-06T11:41:42.571Z,4.87
2023-01-06T11:44:34.290Z,4.83
2023-01-06T11:47:19.373Z,4.85
2023-01-06T11:50:01.215Z,4.87
2023-01-06T11:52:33.234Z,4.85
2023-01-06T11:55:07.031Z,4.99
2023-01-06T11:57:56.233Z,5.06
2023-01-06T12:00:53.334Z,5.05
2023-01-06T12:03:21.419Z,5.03
2023-01-06T12:06:18.800Z,5.05
2023-01-06T12:09:22.503Z,5.09
2023-01-06T12:11:50.568Z,5.13
2023-01-06T12:14:28.860Z,5.16
2023-01-06T12:17:28.799Z,5.19
2023-01-06T12:20:19.297Z,5.26
2023-01-06T12:22:51.726Z,5.29
2023-01-06T12:25:26.793Z,5.30
2023-01-06T12:28:02.220Z,5.26
2023-01-06T12:30:59.407Z,5.23
2023-01-06T12:33:37.079Z,5.22
2023-01-06T12:36:36.663Z,5.21
2023-01-06T12:39:19.307Z,5.21
2023-01-06T12:41:57.433Z,5.17
2023-01-06T12:44:43.783Z,5.15
2023-01-06T12:47:34.528Z,5.14
2023-01-06T12:50:22.666Z,5.16
2023-01-06T12:53:04.893Z,5.15
2023-01-06T12:55:52.977Z,5.11
2023-01-06T12:58:29.223Z,5.12
2023-01-06T13:01:06.839Z,5.07
2023-01-06T13:04:19.490Z,5.04
2023-01-06T13:07:11.043Z,4.98
2023-01-06T13:09:51.096Z,4.98
2023-01-06T13:12:19.046Z,4.98
2023-01-06T13:15:02.447Z,4.95
2023-01-06T13:17:53.276Z,4.89
2023-01-06T13:20:30.307Z,4.88
2023-01-06T13:23:04.483Z,4.87
2023-01-06T13:25:54.471Z,4.87
2023-01-06T13:28:44.584Z,4.85
2023-01-06T13:31:50.361Z,4.75
2023-01-06T13:34:34.099Z,4.74
2023-01-06T13:37:28.664Z,4.68
2023-01-06T13:40:17.623Z,4.66
2023-01-06T13:43:08.197Z,4.62
2023-01-06T13:45:42.717Z,4.55
2023-01-06T13:48:28.919Z,4.57
2023-01-06T13:51:05.441Z,4.57
2023-01-06T13:53:41.879Z,4.56
2023-01-06T13:56:12.812Z,4.57
2023-01-06T13:58:50.895Z,4.56
2023-01-06T14:01:19.036Z,4.55
2023-01-06T14:03:53.074Z,4.52
2023-01-06T14:06:23.795Z,4.50
2023-01-06T14:08:57.868Z,4.47
2023-01-06T14:11:41.764Z,4.46
2023-01-06T14:14:40.562Z,4.43
2023-01-06T14:17:29.987Z,4.36
2023-01-06T14:20:01.190Z,4.35
2023-01-06T14:22:32.045Z,4.39
2023-01-06T14:25:05.621Z,4.39
2023-01-06T14:27:45.626Z,4.40
2023-01-06T14:30:34.353Z,4.42
2023-01-06T14:33:05.200Z,4.39
2023-01-06T14:35:46.870Z,4.41
2023-01-06T14:38:20.940Z,4.44
2023-01-06T14:41:03.885Z,4.44
2023-01-06T14:43:54.808Z,4.47
2023-01-06T14:46:31.177Z,4.48
2023-01-06T14:49:13.376Z,4.38
2023-01-06T14:51:46.775Z,4.36
2023-01-06T14:54:17.346Z,4.42
2023-01-06T14:56:56.396Z,4.42
2023-01-06T14:59:24.507Z,4.47
2023-01-06T15:02:05.117Z,4.51
2023-01-06T15:04:35.697Z,4.55
2023-01-06T15:07:07.851Z,4.58
2023-01-06T15:09:35.833Z,4.60
2023-01-06T15:12:03.973Z,4.61
2023-01-06T15:14:35.554Z,4.61
2023-01-06T15:17:07.476Z,4.61
2023-01-06T15:19:37.906Z,4.59
2023-01-06T15:22:10.826Z,4.59
2023-01-06T15:24:43.993Z,4.62
2023-01-06T15:27:16.148Z,4.61
2023-01-06T15:29:55.152Z,4.56
2023-01-06T15:32:27.111Z,4.58
2023-01-06T15:34:59.606Z,4.55
2023-01-06T15:37:35.525Z,4.56
2023-01-06T15:40:07.627Z,4.55
2023-01-06T15:42:40.241Z,4.58
2023-01-06T15:45:25.592Z,4.63
2023-01-06T15:47:57.653Z,4.63
2023-01-06T15:50:34.009Z,4.63
2023-01-06T15:53:05.444Z,4.63
2023-01-06T15:55:39.406Z,4.66
2023-01-06T15:58:26.995Z,4.67
2023-01-06T16:01:07.480Z,4.70
2023-01-06T16:03:38.706Z,4.75
2023-01-06T16:06:15.396Z,4.76
2023-01-06T16:08:47.266Z,4.76
2023-01-06T16:11:37.088Z,4.76
2023-01-06T16:14:24.579Z,4.79
2023-01-06T16:17:00.657Z,4.79
2023-01-06T16:19:31.000Z,4.83
2023-01-06T16:22:08.274Z,4.86
2023-01-06T16:24:36.359Z,4.88
2023-01-06T16:27:07.806Z,4.88
2023-01-06T16:29:38.813Z,4.88
2023-01-06T16:32:32.430Z,4.93
2023-01-06T16:35:16.185Z,4.93
2023-01-06T16:37:47.023Z,4.93
2023-01-06T16:40:19.173Z,4.95
2023-01-06T16:42:49.879Z,4.97
2023-01-06T16:45:35.579Z,4.99
2023-01-06T16:48:03.734Z,5.00
2023-01-06T16:50:40.528Z,5.04
2023-01-06T16:53:22.515Z,5.10
2023-01-06T16:55:55.213Z,5.12
2023-01-06T16:58:26.694Z,5.13
2023-01-06T17:01:08.490Z,5.13
2023-01-06T17:03:39.819Z,5.16
2023-01-06T17:06:18.864Z,5.19
2023-01-06T17:08:51.213Z,5.22
2023-01-06T17:11:24.612Z,5.25
2023-01-06T17:14:15.621Z,5.27
2023-01-06T17:16:47.494Z,5.30
2023-01-06T17:19:20.716Z,5.32
2023-01-06T17:21:57.861Z,5.32
2023-01-06T17:24:29.108Z,5.37
2023-01-06T17:27:07.711Z,5.41
2023-01-06T17:29:38.364Z,5.46
2023-01-06T17:32:29.382Z,5.60
2023-01-06T17:34:59.930Z,5.61
2023-01-06T17:37:30.711Z,5.69
2023-01-06T17:39:58.857Z,5.80
2023-01-06T17:42:33.113Z,5.85
2023-01-06T17:45:01.255Z,5.91
2023-01-06T17:47:46.343Z,5.94
2023-01-06T17:50:35.896Z,6.02
2023-01-06T17:53:34.777Z,6.08
2023-01-06T17:56:10.175Z,6.05
2023-01-06T17:58:43.122Z,6.15
2023-01-06T18:01:25.723Z,6.19
2023-01-06T18:03:59.654Z,6.23
2023-01-06T18:06:39.971Z,6.26
2023-01-06T18:09:21.305Z,6.29
2023-01-06T18:11:58.797Z,6.32
2023-01-06T18:14:44.024Z,6.36
2023-01-06T18:17:30.067Z,6.42
2023-01-06T18:20:01.239Z,6.49
2023-01-06T18:22:33.911Z,6.54
2023-01-06T18:25:09.299Z,6.60
2023-01-06T18:27:40.428Z,6.64
2023-01-06T18:30:21.021Z,6.70
2023-01-06T18:32:51.882Z,6.74
2023-01-06T18:35:26.535Z,6.79
2023-01-06T18:38:03.733Z,6.82
2023-01-06T18:40:31.772Z,6.84
2023-01-06T18:43:37.538Z,6.82
2023-01-06T18:46:18.025Z,6.87
2023-01-06T18:48:48.989Z,6.89
2023-01-06T18:51:23.782Z,6.88
2023-01-06T18:53:54.763Z,6.86
2023-01-06T18:56:27.009Z,6.86
2023-01-06T18:58:58.997Z,6.88
2023-01-06T19:01:43.603Z,6.94
2023-01-06T19:04:30.859Z,7.04
2023-01-06T19:07:18.183Z,7.09
2023-01-06T19:09:50.050Z,7.16
2023-01-06T19:12:32.335Z,7.20
2023-01-06T19:15:24.749Z,7.23
2023-01-06T19:17:55.561Z,7.27
2023-01-06T19:20:33.329Z,7.31
2023-01-06T19:23:26.708Z,7.33
2023-01-06T19:26:14.521Z,7.35
2023-01-06T19:28:42.455Z,7.37
2023-01-06T19:31:22.554Z,7.39
2023-01-06T19:34:01.318Z,7.41
2023-01-06T19:36:50.205Z,7.41
2023-01-06T19:39:31.980Z,7.41
2023-01-06T19:42:27.628Z,7.41
2023-01-06T19:45:11.992Z,7.41
2023-01-06T19:47:43.138Z,7.44
2023-01-06T19:50:25.810Z,7.42
2023-01-06T19:52:59.402Z,7.42
2023-01-06T19:55:30.983Z,7.44
2023-01-06T19:58:10.286Z,7.46
2023-01-06T20:00:57.740Z,7.46
2023-01-06T20:03:37.289Z,7.47
2023-01-06T20:06:08.173Z,7.47
2023-01-06T20:08:36.227Z,7.47
2023-01-06T20:11:04.231Z,7.46
2023-01-06T20:13:32.341Z,7.45
2023-01-06T20:16:05.719Z,7.41
2023-01-06T20:18:33.976Z,7.41
2023-01-06T20:21:02.727Z,7.40
2023-01-06T20:23:32.663Z,7.39
2023-01-06T20:26:00.792Z,7.40
2023-01-06T20:28:29.068Z,7.38
2023-01-06T20:30:57.321Z,7.37
2023-01-06T20:33:25.437Z,7.38
2023-01-06T20:35:53.583Z,7.36
2023-01-06T20:38:21.653Z,7.33
2023-01-06T20:40:52.242Z,7.31
2023-01-06T20:43:20.231Z,7.28
2023-01-06T20:45:48.513Z,7.23
2023-01-06T20:48:16.712Z,7.19
2023-01-06T20:50:44.686Z,7.15
2023-01-06T20:53:12.816Z,7.08
2023-01-06T20:55:40.990Z,7.04
2023-01-06T20:58:09.020Z,7.02
2023-01-06T21:00:37.027Z,7.00
2023-01-06T21:03:08.071Z,6.99
2023-01-06T21:05:41.243Z,6.99
2023-01-06T21:08:09.103Z,6.99
2023-01-06T21:10:38.747Z,6.98
2023-01-06T21:13:06.862Z,6.98
2023-01-06T21:15:34.995Z,6.97
2023-01-06T21:18:03.097Z,6.94
2023-01-06T21:20:31.087Z,6.92
2023-01-06T21:22:59.197Z,6.89
2023-01-06T21:25:27.375Z,6.86
2023-01-06T21:27:56.175Z,6.83
2023-01-06T21:30:26.685Z,6.81
2023-01-06T21:32:57.107Z,6.80
2023-01-06T21:35:25.277Z,6.80
2023-01-06T21:37:55.712Z,6.79
2023-01-06T21:40:23.688Z,6.79
2023-01-06T21:43:10.280Z,6.78
2023-01-06T21:45:44.776Z,6.76
2023-01-06T21:48:15.488Z,6.70
2023-01-06T21:50:46.199Z,6.64
2023-01-06T21:53:14.365Z,6.59
2023-01-06T21:55:44.690Z,6.52
2023-01-06T21:58:12.757Z,6.47
2023-01-06T22:00:40.680Z,6.45
2023-01-06T22:03:08.693Z,6.44
2023-01-06T22:05:39.012Z,6.43
2023-01-06T22:08:11.756Z,6.40
2023-01-06T22:10:43.925Z,6.37
2023-01-06T22:13:17.553Z,6.35
2023-01-06T22:15:48.476Z,6.31
2023-01-06T22:18:19.178Z,6.28
2023-01-06T22:20:47.496Z,6.24
2023-01-06T22:23:19.254Z,6.19
2023-01-06T22:25:47.337Z,6.14
2023-01-06T22:28:15.399Z,6.10
2023-01-06T22:30:43.675Z,6.03
2023-01-06T22:33:11.749Z,6.00
2023-01-06T22:35:39.742Z,5.98
2023-01-06T22:38:07.852Z,5.96
2023-01-06T22:40:36.115Z,5.94
2023-01-06T22:43:09.623Z,5.92
2023-01-06T22:45:37.544Z,5.89
2023-01-06T22:48:08.584Z,5.86
2023-01-06T22:50:40.143Z,5.83
2023-01-06T22:53:08.034Z,5.81
2023-01-06T22:55:36.121Z,5.78
2023-01-06T22:58:07.330Z,5.73
2023-01-06T23:00:35.264Z,5.69
2023-01-06T23:03:03.408Z,5.65
2023-01-06T23:05:31.527Z,5.59
2023-01-06T23:07:59.539Z,5.55
2023-01-06T23:10:27.679Z,5.54
2023-01-06T23:12:55.560Z,5.57
2023-01-06T23:15:23.504Z,5.56
2023-01-06T23:17:51.525Z,5.57
2023-01-06T23:20:19.586Z,5.58
2023-01-06T23:22:47.532Z,5.59
2023-01-06T23:25:15.762Z,5.60
2023-01-06T23:27:43.667Z,5.60
2023-01-06T23:30:14.234Z,5.60
2023-01-06T23:32:42.159Z,5.59
2023-01-06T23:35:10.306Z,5.60
2023-01-06T23:37:38.302Z,5.60
2023-01-06T23:40:06.812Z,5.58
2023-01-06T23:42:48.123Z,5.57
2023-01-06T23:45:18.716Z,5.55
2023-01-06T23:47:46.704Z,5.55
2023-01-06T23:50:14.853Z,5.55
2023-01-06T23:52:42.870Z,5.50
2023-01-06T23:55:10.930Z,5.47
2023-01-06T23:57:39.078Z,5.41
